SCTE 160500Z 00000KT CAVOK 03/02 Q1017 NOSIG